Eareckson Air Station Shemya US
ICAO: PASY
IATA:
Category: Medium
Scheduled Services:

Elevation: 95 ft
TransAlt. 18000 ft.

Airport Communications:
ASOS:135.65
ANCHORAGE CNTR:119.1
CTAF:127.2

PASY Zoom In..

If you have problems with the map follow the link
https://www.worldairports.se/pages/airport.php?
ICAO=PASY

Runways:

(A) RW 10 length 10004 ft width 150 ft
---- / hdg 105

(B) RW 28 length 10004 ft width 150 ft
ILS 110.10 / hdg 285

Location; PASY
Day. 25 / Time. 21.55 Zulu
* Altimeter: 29.34
* Temperature: 01° c. 33.8°f.
* Wind from: 170° Speed 18 kn with Gusts up to 23 kn.
Dewpoint: -04° c.
Visibility: 10 Statute Miles.
Clouds: Few 3300 ft.
Clouds: Scattered 4300 ft.

PASY 252155Z 17018G23KT 10SM FEW033 SCT043 01/M04 A2934 RMK AO2A SHSNB18E24 SLP939 T00111037 RVRNO PNO FZRANO $


Wind From 170°
Speed 18 kn.

 
 
jpsmedia worldairports.se 2020   terms of use